sensor_id;sensor_type;location;lat;lon;timestamp;temperature;humidity
3866;DHT22;1948;53.250;10.412;2023-05-10T00:01:43;14.70;99.90
3866;DHT22;1948;53.250;10.412;2023-05-10T00:04:12;14.70;99.90
3866;DHT22;1948;53.250;10.412;2023-05-10T00:06:42;14.70;99.90
3866;DHT22;1948;53.250;10.412;2023-05-10T00:09:11;14.70;99.90
3866;DHT22;1948;53.250;10.412;2023-05-10T00:11:40;14.70;99.90
3866;DHT22;1948;53.250;10.412;2023-05-10T00:14:07;14.70;99.90
3866;DHT22;1948;53.250;10.412;2023-05-10T00:16:36;14.60;99.90
3866;DHT22;1948;53.250;10.412;2023-05-10T00:19:03;14.60;99.90
3866;DHT22;1948;53.250;10.412;2023-05-10T00:21:30;14.60;99.90
3866;DHT22;1948;53.250;10.412;2023-05-10T00:24:02;14.50;99.90
3866;DHT22;1948;53.250;10.412;2023-05-10T00:26:29;14.50;99.90
3866;DHT22;1948;53.250;10.412;2023-05-10T00:28:58;14.50;99.90
3866;DHT22;1948;53.250;10.412;2023-05-10T00:31:26;14.50;99.90
3866;DHT22;1948;53.250;10.412;2023-05-10T00:33:55;14.50;99.90
3866;DHT22;1948;53.250;10.412;2023-05-10T00:36:22;14.50;99.90
3866;DHT22;1948;53.250;10.412;2023-05-10T00:38:49;14.50;99.90
3866;DHT22;1948;53.250;10.412;2023-05-10T00:41:16;14.40;99.90
3866;DHT22;1948;53.250;10.412;2023-05-10T00:43:45;14.40;99.90
3866;DHT22;1948;53.250;10.412;2023-05-10T00:46:12;14.30;99.90
3866;DHT22;1948;53.250;10.412;2023-05-10T00:48:42;14.30;99.90
3866;DHT22;1948;53.250;10.412;2023-05-10T00:51:10;14.20;99.90
3866;DHT22;1948;53.250;10.412;2023-05-10T00:53:37;14.20;99.90
3866;DHT22;1948;53.250;10.412;2023-05-10T00:56:06;14.20;99.90
3866;DHT22;1948;53.250;10.412;2023-05-10T00:58:33;14.20;99.90
3866;DHT22;1948;53.250;10.412;2023-05-10T01:01:01;14.10;99.90
3866;DHT22;1948;53.250;10.412;2023-05-10T01:03:31;14.10;99.90
3866;DHT22;1948;53.250;10.412;2023-05-10T01:05:58;14.10;99.90
3866;DHT22;1948;53.250;10.412;2023-05-10T01:08:26;14.10;99.90
3866;DHT22;1948;53.250;10.412;2023-05-10T01:10:55;14.10;99.90
3866;DHT22;1948;53.250;10.412;2023-05-10T01:13:34;14.10;99.90
3866;DHT22;1948;53.250;10.412;2023-05-10T01:16:04;14.00;99.90
3866;DHT22;1948;53.250;10.412;2023-05-10T01:18:39;14.00;99.90
3866;DHT22;1948;53.250;10.412;2023-05-10T01:24:37;13.90;99.90
3866;DHT22;1948;53.250;10.412;2023-05-10T01:30:42;13.80;99.90
3866;DHT22;1948;53.250;10.412;2023-05-10T01:33:24;13.80;99.90
3866;DHT22;1948;53.250;10.412;2023-05-10T01:36:05;13.80;99.90
3866;DHT22;1948;53.250;10.412;2023-05-10T01:38:46;13.80;99.90
3866;DHT22;1948;53.250;10.412;2023-05-10T01:41:18;13.70;99.90
3866;DHT22;1948;53.250;10.412;2023-05-10T01:44:02;13.70;99.90
3866;DHT22;1948;53.250;10.412;2023-05-10T01:46:39;13.70;99.90
3866;DHT22;1948;53.250;10.412;2023-05-10T01:49:14;13.60;99.90
3866;DHT22;1948;53.250;10.412;2023-05-10T01:51:51;13.60;99.90
3866;DHT22;1948;53.250;10.412;2023-05-10T01:54:22;13.60;99.90
3866;DHT22;1948;53.250;10.412;2023-05-10T01:56:57;13.60;99.90
3866;DHT22;1948;53.250;10.412;2023-05-10T01:59:34;13.50;99.90
3866;DHT22;1948;53.250;10.412;2023-05-10T02:02:08;13.50;99.90
3866;DHT22;1948;53.250;10.412;2023-05-10T02:04:42;13.50;99.90
3866;DHT22;1948;53.250;10.412;2023-05-10T02:07:10;13.40;99.90
3866;DHT22;1948;53.250;10.412;2023-05-10T02:09:42;13.40;99.90
3866;DHT22;1948;53.250;10.412;2023-05-10T02:12:13;13.40;99.90
3866;DHT22;1948;53.250;10.412;2023-05-10T02:14:43;13.40;99.90
3866;DHT22;1948;53.250;10.412;2023-05-10T02:17:11;13.40;99.90
3866;DHT22;1948;53.250;10.412;2023-05-10T02:19:40;13.30;99.90
3866;DHT22;1948;53.250;10.412;2023-05-10T02:22:12;13.20;99.90
3866;DHT22;1948;53.250;10.412;2023-05-10T02:24:45;13.20;99.90
3866;DHT22;1948;53.250;10.412;2023-05-10T02:27:15;13.20;99.90
3866;DHT22;1948;53.250;10.412;2023-05-10T02:29:44;13.10;99.90
3866;DHT22;1948;53.250;10.412;2023-05-10T02:32:12;13.10;99.90
3866;DHT22;1948;53.250;10.412;2023-05-10T02:34:44;13.20;99.90
3866;DHT22;1948;53.250;10.412;2023-05-10T02:37:15;13.10;99.90
3866;DHT22;1948;53.250;10.412;2023-05-10T02:39:48;13.00;99.90
3866;DHT22;1948;53.250;10.412;2023-05-10T02:42:19;13.10;99.90
3866;DHT22;1948;53.250;10.412;2023-05-10T02:44:53;13.10;99.90
3866;DHT22;1948;53.250;10.412;2023-05-10T02:47:25;13.00;99.90
3866;DHT22;1948;53.250;10.412;2023-05-10T02:49:53;13.00;99.90
3866;DHT22;1948;53.250;10.412;2023-05-10T02:52:25;12.90;99.90
3866;DHT22;1948;53.250;10.412;2023-05-10T02:54:58;13.00;99.90
3866;DHT22;1948;53.250;10.412;2023-05-10T02:57:33;12.90;99.90
3866;DHT22;1948;53.250;10.412;2023-05-10T03:00:01;13.00;99.90
3866;DHT22;1948;53.250;10.412;2023-05-10T03:02:30;12.90;99.90
3866;DHT22;1948;53.250;10.412;2023-05-10T03:04:57;12.90;99.90
3866;DHT22;1948;53.250;10.412;2023-05-10T03:07:25;12.90;99.90
3866;DHT22;1948;53.250;10.412;2023-05-10T03:09:52;12.80;99.90
3866;DHT22;1948;53.250;10.412;2023-05-10T03:17:55;12.90;99.90
3866;DHT22;1948;53.250;10.412;2023-05-10T03:20:31;12.80;99.90
3866;DHT22;1948;53.250;10.412;2023-05-10T03:25:41;12.80;99.90
3866;DHT22;1948;53.250;10.412;2023-05-10T03:28:12;12.80;99.90
3866;DHT22;1948;53.250;10.412;2023-05-10T03:30:44;12.80;99.90
3866;DHT22;1948;53.250;10.412;2023-05-10T03:33:13;12.80;99.90
3866;DHT22;1948;53.250;10.412;2023-05-10T03:35:43;12.70;99.90
3866;DHT22;1948;53.250;10.412;2023-05-10T03:38:13;12.70;99.90
3866;DHT22;1948;53.250;10.412;2023-05-10T03:40:42;12.70;99.90
3866;DHT22;1948;53.250;10.412;2023-05-10T03:43:09;12.70;99.90
3866;DHT22;1948;53.250;10.412;2023-05-10T03:45:36;12.70;99.90
3866;DHT22;1948;53.250;10.412;2023-05-10T03:48:06;12.70;99.90
3866;DHT22;1948;53.250;10.412;2023-05-10T03:50:33;12.70;99.90
3866;DHT22;1948;53.250;10.412;2023-05-10T03:53:00;12.70;99.90
3866;DHT22;1948;53.250;10.412;2023-05-10T03:55:27;12.70;99.90
3866;DHT22;1948;53.250;10.412;2023-05-10T03:57:54;12.70;99.90
3866;DHT22;1948;53.250;10.412;2023-05-10T04:00:21;12.80;99.90
3866;DHT22;1948;53.250;10.412;2023-05-10T04:02:52;12.70;99.90
3866;DHT22;1948;53.250;10.412;2023-05-10T04:05:19;12.80;99.90
3866;DHT22;1948;53.250;10.412;2023-05-10T04:07:46;12.70;99.90
3866;DHT22;1948;53.250;10.412;2023-05-10T04:10:13;12.80;99.90
3866;DHT22;1948;53.250;10.412;2023-05-10T04:12:40;12.80;99.90
3866;DHT22;1948;53.250;10.412;2023-05-10T04:15:08;12.80;99.90
3866;DHT22;1948;53.250;10.412;2023-05-10T04:17:35;12.80;99.90
3866;DHT22;1948;53.250;10.412;2023-05-10T04:20:02;12.80;99.90
3866;DHT22;1948;53.250;10.412;2023-05-10T04:22:30;12.80;99.90
3866;DHT22;1948;53.250;10.412;2023-05-10T04:24:56;12.80;99.90
3866;DHT22;1948;53.250;10.412;2023-05-10T04:27:23;12.80;99.90
3866;DHT22;1948;53.250;10.412;2023-05-10T04:29:53;12.90;99.90
3866;DHT22;1948;53.250;10.412;2023-05-10T04:32:20;12.80;99.90
3866;DHT22;1948;53.250;10.412;2023-05-10T04:34:47;12.80;99.90
3866;DHT22;1948;53.250;10.412;2023-05-10T04:37:17;12.80;99.90
3866;DHT22;1948;53.250;10.412;2023-05-10T04:39:47;12.80;99.90
3866;DHT22;1948;53.250;10.412;2023-05-10T04:42:14;12.80;99.90
3866;DHT22;1948;53.250;10.412;2023-05-10T04:44:41;12.80;99.90
3866;DHT22;1948;53.250;10.412;2023-05-10T04:47:10;12.90;99.90
3866;DHT22;1948;53.250;10.412;2023-05-10T04:49:39;12.90;99.90
3866;DHT22;1948;53.250;10.412;2023-05-10T04:52:09;12.90;99.90
3866;DHT22;1948;53.250;10.412;2023-05-10T04:54:35;13.00;99.90
3866;DHT22;1948;53.250;10.412;2023-05-10T04:57:02;13.10;99.90
3866;DHT22;1948;53.250;10.412;2023-05-10T04:59:29;13.10;99.90
3866;DHT22;1948;53.250;10.412;2023-05-10T05:01:58;13.20;99.90
3866;DHT22;1948;53.250;10.412;2023-05-10T05:04:25;13.20;99.90
3866;DHT22;1948;53.250;10.412;2023-05-10T05:06:57;13.30;99.90
3866;DHT22;1948;53.250;10.412;2023-05-10T05:09:24;13.30;99.90
3866;DHT22;1948;53.250;10.412;2023-05-10T05:11:53;13.30;99.90
3866;DHT22;1948;53.250;10.412;2023-05-10T05:14:20;13.40;99.90
3866;DHT22;1948;53.250;10.412;2023-05-10T05:16:52;13.50;99.90
3866;DHT22;1948;53.250;10.412;2023-05-10T05:19:24;13.50;99.90
3866;DHT22;1948;53.250;10.412;2023-05-10T05:21:53;13.60;99.90
3866;DHT22;1948;53.250;10.412;2023-05-10T05:24:21;13.70;99.90
3866;DHT22;1948;53.250;10.412;2023-05-10T05:26:48;13.90;99.90
3866;DHT22;1948;53.250;10.412;2023-05-10T05:29:17;14.00;99.90
3866;DHT22;1948;53.250;10.412;2023-05-10T05:31:47;14.10;99.90
3866;DHT22;1948;53.250;10.412;2023-05-10T05:34:16;14.00;99.90
3866;DHT22;1948;53.250;10.412;2023-05-10T05:36:49;14.20;99.90
3866;DHT22;1948;53.250;10.412;2023-05-10T05:39:19;14.20;99.90
3866;DHT22;1948;53.250;10.412;2023-05-10T05:41:46;14.10;99.90
3866;DHT22;1948;53.250;10.412;2023-05-10T05:44:13;14.10;99.90
3866;DHT22;1948;53.250;10.412;2023-05-10T05:46:42;14.20;99.90
3866;DHT22;1948;53.250;10.412;2023-05-10T05:49:09;14.30;99.90
3866;DHT22;1948;53.250;10.412;2023-05-10T05:51:36;14.30;99.90
3866;DHT22;1948;53.250;10.412;2023-05-10T05:54:03;14.40;99.90
3866;DHT22;1948;53.250;10.412;2023-05-10T05:56:30;14.50;99.90
3866;DHT22;1948;53.250;10.412;2023-05-10T05:58:57;14.60;99.90
3866;DHT22;1948;53.250;10.412;2023-05-10T06:01:27;14.70;99.90
3866;DHT22;1948;53.250;10.412;2023-05-10T06:03:53;14.80;99.90
3866;DHT22;1948;53.250;10.412;2023-05-10T06:06:20;14.70;99.90
3866;DHT22;1948;53.250;10.412;2023-05-10T06:08:47;14.80;99.90
3866;DHT22;1948;53.250;10.412;2023-05-10T06:11:17;14.80;99.90
3866;DHT22;1948;53.250;10.412;2023-05-10T06:13:44;14.80;99.90
3866;DHT22;1948;53.250;10.412;2023-05-10T06:16:17;14.90;99.90
3866;DHT22;1948;53.250;10.412;2023-05-10T06:18:44;14.90;99.90
3866;DHT22;1948;53.250;10.412;2023-05-10T06:21:13;15.10;99.90
3866;DHT22;1948;53.250;10.412;2023-05-10T06:23:41;15.10;99.90
3866;DHT22;1948;53.250;10.412;2023-05-10T06:26:09;15.30;99.90
3866;DHT22;1948;53.250;10.412;2023-05-10T06:28:36;15.30;99.90
3866;DHT22;1948;53.250;10.412;2023-05-10T06:31:05;15.30;99.90
3866;DHT22;1948;53.250;10.412;2023-05-10T06:33:33;15.50;99.90
3866;DHT22;1948;53.250;10.412;2023-05-10T06:36:05;15.80;99.90
3866;DHT22;1948;53.250;10.412;2023-05-10T06:38:32;15.80;99.90
3866;DHT22;1948;53.250;10.412;2023-05-10T06:40:59;15.70;99.90
3866;DHT22;1948;53.250;10.412;2023-05-10T06:43:27;15.80;99.90
3866;DHT22;1948;53.250;10.412;2023-05-10T06:45:56;15.90;99.90
3866;DHT22;1948;53.250;10.412;2023-05-10T06:48:26;16.10;99.90
3866;DHT22;1948;53.250;10.412;2023-05-10T06:50:52;16.30;99.90
3866;DHT22;1948;53.250;10.412;2023-05-10T06:53:22;16.50;99.90
3866;DHT22;1948;53.250;10.412;2023-05-10T06:55:49;16.60;99.90
3866;DHT22;1948;53.250;10.412;2023-05-10T06:58:16;16.60;99.90
3866;DHT22;1948;53.250;10.412;2023-05-10T07:00:43;16.80;99.90
3866;DHT22;1948;53.250;10.412;2023-05-10T07:03:11;16.50;99.90
3866;DHT22;1948;53.250;10.412;2023-05-10T07:05:38;16.40;99.90
3866;DHT22;1948;53.250;10.412;2023-05-10T07:08:05;16.40;99.90
3866;DHT22;1948;53.250;10.412;2023-05-10T07:10:33;16.30;99.90
3866;DHT22;1948;53.250;10.412;2023-05-10T07:13:00;16.50;99.90
3866;DHT22;1948;53.250;10.412;2023-05-10T07:15:29;16.60;99.90
3866;DHT22;1948;53.250;10.412;2023-05-10T07:17:58;16.70;99.90
3866;DHT22;1948;53.250;10.412;2023-05-10T07:20:26;17.00;99.90
3866;DHT22;1948;53.250;10.412;2023-05-10T07:22:53;17.10;99.90
3866;DHT22;1948;53.250;10.412;2023-05-10T07:25:22;17.40;99.90
3866;DHT22;1948;53.250;10.412;2023-05-10T07:27:51;17.50;99.90
3866;DHT22;1948;53.250;10.412;2023-05-10T07:30:19;17.70;99.90
3866;DHT22;1948;53.250;10.412;2023-05-10T07:32:48;17.70;99.90
3866;DHT22;1948;53.250;10.412;2023-05-10T07:35:17;17.80;99.90
3866;DHT22;1948;53.250;10.412;2023-05-10T07:37:47;17.90;99.90
3866;DHT22;1948;53.250;10.412;2023-05-10T07:40:13;17.70;99.90
3866;DHT22;1948;53.250;10.412;2023-05-10T07:42:45;17.70;99.90
3866;DHT22;1948;53.250;10.412;2023-05-10T07:45:14;17.70;99.90
3866;DHT22;1948;53.250;10.412;2023-05-10T07:47:41;17.80;99.90
3866;DHT22;1948;53.250;10.412;2023-05-10T07:50:11;17.80;99.90
3866;DHT22;1948;53.250;10.412;2023-05-10T07:52:38;17.70;99.90
3866;DHT22;1948;53.250;10.412;2023-05-10T07:55:07;17.70;99.90
3866;DHT22;1948;53.250;10.412;2023-05-10T07:57:35;17.80;99.90
3866;DHT22;1948;53.250;10.412;2023-05-10T08:00:02;18.20;99.90
3866;DHT22;1948;53.250;10.412;2023-05-10T08:02:29;18.40;99.90
3866;DHT22;1948;53.250;10.412;2023-05-10T08:04:56;18.40;99.90
3866;DHT22;1948;53.250;10.412;2023-05-10T08:07:29;18.60;99.90
3866;DHT22;1948;53.250;10.412;2023-05-10T08:09:58;18.80;99.90
3866;DHT22;1948;53.250;10.412;2023-05-10T08:12:27;18.70;99.90
3866;DHT22;1948;53.250;10.412;2023-05-10T08:14:56;18.80;99.90
3866;DHT22;1948;53.250;10.412;2023-05-10T08:17:23;18.80;99.90
3866;DHT22;1948;53.250;10.412;2023-05-10T08:19:50;18.90;99.90
3866;DHT22;1948;53.250;10.412;2023-05-10T08:22:17;18.80;99.90
3866;DHT22;1948;53.250;10.412;2023-05-10T08:24:46;18.70;99.90
3866;DHT22;1948;53.250;10.412;2023-05-10T08:27:13;18.90;99.90
3866;DHT22;1948;53.250;10.412;2023-05-10T08:29:40;18.80;99.90
3866;DHT22;1948;53.250;10.412;2023-05-10T08:32:18;18.70;99.90
3866;DHT22;1948;53.250;10.412;2023-05-10T08:34:47;18.60;99.90
3866;DHT22;1948;53.250;10.412;2023-05-10T08:37:14;18.60;99.90
3866;DHT22;1948;53.250;10.412;2023-05-10T08:39:44;18.50;99.90
3866;DHT22;1948;53.250;10.412;2023-05-10T08:42:18;18.10;99.90
3866;DHT22;1948;53.250;10.412;2023-05-10T08:44:48;17.90;99.90
3866;DHT22;1948;53.250;10.412;2023-05-10T08:47:17;17.80;99.90
3866;DHT22;1948;53.250;10.412;2023-05-10T08:49:47;17.60;99.90
3866;DHT22;1948;53.250;10.412;2023-05-10T08:52:20;17.70;99.90
3866;DHT22;1948;53.250;10.412;2023-05-10T08:54:50;17.70;99.90
3866;DHT22;1948;53.250;10.412;2023-05-10T08:57:17;17.70;99.90
3866;DHT22;1948;53.250;10.412;2023-05-10T08:59:45;17.80;99.90
3866;DHT22;1948;53.250;10.412;2023-05-10T09:02:13;17.80;99.90
3866;DHT22;1948;53.250;10.412;2023-05-10T09:04:46;17.80;99.90
3866;DHT22;1948;53.250;10.412;2023-05-10T09:07:13;17.90;99.90
3866;DHT22;1948;53.250;10.412;2023-05-10T09:09:44;18.10;99.90
3866;DHT22;1948;53.250;10.412;2023-05-10T09:12:12;18.00;99.90
3866;DHT22;1948;53.250;10.412;2023-05-10T09:14:44;17.80;99.90
3866;DHT22;1948;53.250;10.412;2023-05-10T09:17:12;17.80;99.90
3866;DHT22;1948;53.250;10.412;2023-05-10T09:19:39;17.80;99.90
3866;DHT22;1948;53.250;10.412;2023-05-10T09:22:06;17.80;99.90
3866;DHT22;1948;53.250;10.412;2023-05-10T09:24:35;17.90;99.90
3866;DHT22;1948;53.250;10.412;2023-05-10T09:27:05;18.10;99.90
3866;DHT22;1948;53.250;10.412;2023-05-10T09:29:42;18.10;99.90
3866;DHT22;1948;53.250;10.412;2023-05-10T09:32:10;18.10;99.90
3866;DHT22;1948;53.250;10.412;2023-05-10T09:34:39;17.90;99.90
3866;DHT22;1948;53.250;10.412;2023-05-10T09:37:06;18.00;99.90
3866;DHT22;1948;53.250;10.412;2023-05-10T09:39:38;17.90;99.90
3866;DHT22;1948;53.250;10.412;2023-05-10T09:42:12;17.70;99.90
3866;DHT22;1948;53.250;10.412;2023-05-10T09:44:39;17.70;99.90
3866;DHT22;1948;53.250;10.412;2023-05-10T09:47:07;17.50;99.90
3866;DHT22;1948;53.250;10.412;2023-05-10T09:49:34;17.30;99.90
3866;DHT22;1948;53.250;10.412;2023-05-10T09:52:07;17.30;99.90
3866;DHT22;1948;53.250;10.412;2023-05-10T09:54:35;17.10;99.90
3866;DHT22;1948;53.250;10.412;2023-05-10T09:57:02;17.30;99.90
3866;DHT22;1948;53.250;10.412;2023-05-10T09:59:29;17.20;99.90
3866;DHT22;1948;53.250;10.412;2023-05-10T10:01:59;17.10;99.90
3866;DHT22;1948;53.250;10.412;2023-05-10T10:04:27;17.20;99.90
3866;DHT22;1948;53.250;10.412;2023-05-10T10:07:02;17.30;99.90
3866;DHT22;1948;53.250;10.412;2023-05-10T10:09:30;17.50;99.90
3866;DHT22;1948;53.250;10.412;2023-05-10T10:11:59;17.50;99.90
3866;DHT22;1948;53.250;10.412;2023-05-10T10:14:27;17.40;99.90
3866;DHT22;1948;53.250;10.412;2023-05-10T10:16:55;17.20;99.90
3866;DHT22;1948;53.250;10.412;2023-05-10T10:19:36;17.00;99.90
3866;DHT22;1948;53.250;10.412;2023-05-10T10:22:04;16.70;99.90
3866;DHT22;1948;53.250;10.412;2023-05-10T10:24:32;16.50;99.90
3866;DHT22;1948;53.250;10.412;2023-05-10T10:30:11;15.90;99.90
3866;DHT22;1948;53.250;10.412;2023-05-10T10:32:59;15.90;99.90
3866;DHT22;1948;53.250;10.412;2023-05-10T10:35:43;15.90;99.90
3866;DHT22;1948;53.250;10.412;2023-05-10T10:38:14;15.70;99.90
3866;DHT22;1948;53.250;10.412;2023-05-10T10:40:41;15.50;99.90
3866;DHT22;1948;53.250;10.412;2023-05-10T10:43:27;15.50;99.90
3866;DHT22;1948;53.250;10.412;2023-05-10T10:48:48;15.50;99.90
3866;DHT22;1948;53.250;10.412;2023-05-10T10:51:17;15.40;99.90
3866;DHT22;1948;53.250;10.412;2023-05-10T10:53:47;15.20;99.90
3866;DHT22;1948;53.250;10.412;2023-05-10T10:56:14;15.40;99.90
3866;DHT22;1948;53.250;10.412;2023-05-10T10:58:49;15.50;99.90
3866;DHT22;1948;53.250;10.412;2023-05-10T11:01:18;15.40;99.90
3866;DHT22;1948;53.250;10.412;2023-05-10T11:04:18;15.40;99.90
3866;DHT22;1948;53.250;10.412;2023-05-10T11:06:46;15.40;99.90
3866;DHT22;1948;53.250;10.412;2023-05-10T11:09:13;15.40;99.90
3866;DHT22;1948;53.250;10.412;2023-05-10T11:11:52;15.40;99.90
3866;DHT22;1948;53.250;10.412;2023-05-10T11:14:25;15.50;99.90
3866;DHT22;1948;53.250;10.412;2023-05-10T11:16:55;15.60;99.90
3866;DHT22;1948;53.250;10.412;2023-05-10T11:19:27;15.60;99.90
3866;DHT22;1948;53.250;10.412;2023-05-10T11:24:30;15.70;99.90
3866;DHT22;1948;53.250;10.412;2023-05-10T11:26:57;15.70;99.90
3866;DHT22;1948;53.250;10.412;2023-05-10T11:29:27;15.80;99.90
3866;DHT22;1948;53.250;10.412;2023-05-10T11:31:58;15.90;99.90
3866;DHT22;1948;53.250;10.412;2023-05-10T11:34:31;15.90;99.90
3866;DHT22;1948;53.250;10.412;2023-05-10T11:37:01;16.00;99.90
3866;DHT22;1948;53.250;10.412;2023-05-10T11:39:31;16.20;99.90
3866;DHT22;1948;53.250;10.412;2023-05-10T11:41:59;16.10;99.90
3866;DHT22;1948;53.250;10.412;2023-05-10T11:44:30;16.30;99.90
3866;DHT22;1948;53.250;10.412;2023-05-10T11:46:59;16.50;99.90
3866;DHT22;1948;53.250;10.412;2023-05-10T11:49:29;16.50;99.90
3866;DHT22;1948;53.250;10.412;2023-05-10T11:52:06;16.60;99.90
3866;DHT22;1948;53.250;10.412;2023-05-10T11:54:34;16.50;99.90
3866;DHT22;1948;53.250;10.412;2023-05-10T11:57:04;16.60;99.90
3866;DHT22;1948;53.250;10.412;2023-05-10T11:59:31;16.60;99.90
3866;DHT22;1948;53.250;10.412;2023-05-10T12:01:58;16.50;99.90
3866;DHT22;1948;53.250;10.412;2023-05-10T12:04:26;16.70;99.90
3866;DHT22;1948;53.250;10.412;2023-05-10T12:06:55;16.70;99.90
3866;DHT22;1948;53.250;10.412;2023-05-10T12:09:25;16.90;99.90
3866;DHT22;1948;53.250;10.412;2023-05-10T12:12:09;17.00;99.90
3866;DHT22;1948;53.250;10.412;2023-05-10T12:14:36;17.10;99.90
3866;DHT22;1948;53.250;10.412;2023-05-10T12:17:03;17.00;99.90
3866;DHT22;1948;53.250;10.412;2023-05-10T12:19:40;17.00;99.90
3866;DHT22;1948;53.250;10.412;2023-05-10T12:22:07;17.10;99.90
3866;DHT22;1948;53.250;10.412;2023-05-10T12:24:37;17.00;99.90
3866;DHT22;1948;53.250;10.412;2023-05-10T12:27:05;17.10;99.90
3866;DHT22;1948;53.250;10.412;2023-05-10T12:29:35;17.10;99.90
3866;DHT22;1948;53.250;10.412;2023-05-10T12:32:08;17.20;99.90
3866;DHT22;1948;53.250;10.412;2023-05-10T12:34:35;17.10;99.90
3866;DHT22;1948;53.250;10.412;2023-05-10T12:37:04;17.10;99.90
3866;DHT22;1948;53.250;10.412;2023-05-10T12:39:44;17.10;99.90
3866;DHT22;1948;53.250;10.412;2023-05-10T12:42:12;17.10;99.90
3866;DHT22;1948;53.250;10.412;2023-05-10T12:44:42;17.00;99.90
3866;DHT22;1948;53.250;10.412;2023-05-10T12:47:11;16.90;99.90
3866;DHT22;1948;53.250;10.412;2023-05-10T12:49:38;16.70;99.90
3866;DHT22;1948;53.250;10.412;2023-05-10T12:52:08;16.80;99.90
3866;DHT22;1948;53.250;10.412;2023-05-10T12:54:35;17.00;99.90
3866;DHT22;1948;53.250;10.412;2023-05-10T12:57:02;17.10;99.90
3866;DHT22;1948;53.250;10.412;2023-05-10T12:59:31;17.30;99.90
3866;DHT22;1948;53.250;10.412;2023-05-10T13:02:03;17.50;99.90
3866;DHT22;1948;53.250;10.412;2023-05-10T13:04:30;17.70;99.90
3866;DHT22;1948;53.250;10.412;2023-05-10T13:06:57;17.80;99.90
3866;DHT22;1948;53.250;10.412;2023-05-10T13:09:26;18.00;99.90
3866;DHT22;1948;53.250;10.412;2023-05-10T13:11:58;18.00;99.90
3866;DHT22;1948;53.250;10.412;2023-05-10T13:14:25;18.00;99.90
3866;DHT22;1948;53.250;10.412;2023-05-10T13:16:52;18.10;99.90
3866;DHT22;1948;53.250;10.412;2023-05-10T13:19:20;18.30;99.90
3866;DHT22;1948;53.250;10.412;2023-05-10T13:21:50;18.10;99.90
3866;DHT22;1948;53.250;10.412;2023-05-10T13:24:16;18.10;99.90
3866;DHT22;1948;53.250;10.412;2023-05-10T13:26:49;18.30;99.90
3866;DHT22;1948;53.250;10.412;2023-05-10T13:29:20;18.40;99.90
3866;DHT22;1948;53.250;10.412;2023-05-10T13:31:49;18.30;99.90
3866;DHT22;1948;53.250;10.412;2023-05-10T13:34:19;18.30;99.90
3866;DHT22;1948;53.250;10.412;2023-05-10T13:36:47;18.40;99.90
3866;DHT22;1948;53.250;10.412;2023-05-10T13:39:15;18.40;99.90
3866;DHT22;1948;53.250;10.412;2023-05-10T13:41:42;18.40;99.90
3866;DHT22;1948;53.250;10.412;2023-05-10T13:44:11;18.50;99.90
3866;DHT22;1948;53.250;10.412;2023-05-10T13:46:38;18.30;99.90
3866;DHT22;1948;53.250;10.412;2023-05-10T13:49:09;18.40;99.90
3866;DHT22;1948;53.250;10.412;2023-05-10T13:51:40;18.40;99.90
3866;DHT22;1948;53.250;10.412;2023-05-10T13:54:10;18.50;99.90
3866;DHT22;1948;53.250;10.412;2023-05-10T13:56:40;18.40;99.90
3866;DHT22;1948;53.250;10.412;2023-05-10T13:59:08;18.40;99.90
3866;DHT22;1948;53.250;10.412;2023-05-10T14:01:35;18.60;99.90
3866;DHT22;1948;53.250;10.412;2023-05-10T14:04:05;18.70;99.90
3866;DHT22;1948;53.250;10.412;2023-05-10T14:06:33;18.90;99.90
3866;DHT22;1948;53.250;10.412;2023-05-10T14:09:00;19.20;99.90
3866;DHT22;1948;53.250;10.412;2023-05-10T14:11:27;19.40;99.90
3866;DHT22;1948;53.250;10.412;2023-05-10T14:13:54;19.60;99.90
3866;DHT22;1948;53.250;10.412;2023-05-10T14:16:22;19.70;99.90
3866;DHT22;1948;53.250;10.412;2023-05-10T14:18:49;19.80;99.90
3866;DHT22;1948;53.250;10.412;2023-05-10T14:21:16;19.80;99.90
3866;DHT22;1948;53.250;10.412;2023-05-10T14:23:43;20.00;99.90
3866;DHT22;1948;53.250;10.412;2023-05-10T14:26:10;20.00;99.90
3866;DHT22;1948;53.250;10.412;2023-05-10T14:28:37;19.70;99.90
3866;DHT22;1948;53.250;10.412;2023-05-10T14:31:04;19.70;99.90
3866;DHT22;1948;53.250;10.412;2023-05-10T14:33:32;19.60;99.90
3866;DHT22;1948;53.250;10.412;2023-05-10T14:36:01;19.60;99.90
3866;DHT22;1948;53.250;10.412;2023-05-10T14:38:30;19.60;99.90
3866;DHT22;1948;53.250;10.412;2023-05-10T14:40:56;19.60;99.90
3866;DHT22;1948;53.250;10.412;2023-05-10T14:43:26;19.50;99.90
3866;DHT22;1948;53.250;10.412;2023-05-10T14:45:58;19.50;99.90
3866;DHT22;1948;53.250;10.412;2023-05-10T14:48:27;19.70;99.90
3866;DHT22;1948;53.250;10.412;2023-05-10T14:50:54;19.60;99.90
3866;DHT22;1948;53.250;10.412;2023-05-10T14:53:24;19.90;99.90
3866;DHT22;1948;53.250;10.412;2023-05-10T14:55:53;20.10;99.90
3866;DHT22;1948;53.250;10.412;2023-05-10T14:58:20;19.70;99.90
3866;DHT22;1948;53.250;10.412;2023-05-10T15:00:47;19.80;99.90
3866;DHT22;1948;53.250;10.412;2023-05-10T15:03:16;19.80;99.90
3866;DHT22;1948;53.250;10.412;2023-05-10T15:05:44;19.90;99.90
3866;DHT22;1948;53.250;10.412;2023-05-10T15:08:11;19.70;99.90
3866;DHT22;1948;53.250;10.412;2023-05-10T15:10:39;19.70;99.90
3866;DHT22;1948;53.250;10.412;2023-05-10T15:13:06;19.50;99.90
3866;DHT22;1948;53.250;10.412;2023-05-10T15:15:33;19.30;99.90
3866;DHT22;1948;53.250;10.412;2023-05-10T15:18:00;19.40;99.90
3866;DHT22;1948;53.250;10.412;2023-05-10T15:20:29;19.40;99.90
3866;DHT22;1948;53.250;10.412;2023-05-10T15:22:56;19.50;99.90
3866;DHT22;1948;53.250;10.412;2023-05-10T15:25:26;19.50;99.90
3866;DHT22;1948;53.250;10.412;2023-05-10T15:27:55;19.50;99.90
3866;DHT22;1948;53.250;10.412;2023-05-10T15:30:22;19.40;99.90
3866;DHT22;1948;53.250;10.412;2023-05-10T15:32:49;19.40;99.90
3866;DHT22;1948;53.250;10.412;2023-05-10T15:35:16;19.40;99.90
3866;DHT22;1948;53.250;10.412;2023-05-10T15:37:43;19.40;99.90
3866;DHT22;1948;53.250;10.412;2023-05-10T15:40:11;19.40;99.90
3866;DHT22;1948;53.250;10.412;2023-05-10T15:42:39;19.10;99.90
3866;DHT22;1948;53.250;10.412;2023-05-10T15:45:06;19.20;99.90
3866;DHT22;1948;53.250;10.412;2023-05-10T15:47:34;19.30;99.90
3866;DHT22;1948;53.250;10.412;2023-05-10T15:50:01;19.40;99.90
3866;DHT22;1948;53.250;10.412;2023-05-10T15:52:28;19.20;99.90
3866;DHT22;1948;53.250;10.412;2023-05-10T15:54:55;19.20;99.90
3866;DHT22;1948;53.250;10.412;2023-05-10T15:57:24;19.20;99.90
3866;DHT22;1948;53.250;10.412;2023-05-10T15:59:51;19.20;99.90
3866;DHT22;1948;53.250;10.412;2023-05-10T16:02:19;19.10;99.90
3866;DHT22;1948;53.250;10.412;2023-05-10T16:04:47;19.10;99.90
3866;DHT22;1948;53.250;10.412;2023-05-10T16:07:14;18.90;99.90
3866;DHT22;1948;53.250;10.412;2023-05-10T16:09:41;18.70;99.90
3866;DHT22;1948;53.250;10.412;2023-05-10T16:12:08;18.60;99.90
3866;DHT22;1948;53.250;10.412;2023-05-10T16:14:34;18.40;99.90
3866;DHT22;1948;53.250;10.412;2023-05-10T16:17:01;18.40;99.90
3866;DHT22;1948;53.250;10.412;2023-05-10T16:19:29;18.30;99.90
3866;DHT22;1948;53.250;10.412;2023-05-10T16:21:59;18.30;99.90